Waterville, ME

11:23 PM EST on December 17, 2014 (GMT -0500)
Mayflower Hill | Change Station
CLOSE
Current Station
Personal Weather Station
Location: Waterville, ME
Elevation: 292 ft
Nearby Weather Stations

Elev 292 ft 44.56 °N, 69.66 °W | Updated 9 minutes ago

Overcast
Overcast
35.0 °F
Feels Like 32 °F
N
3.4
Wind Variable Wind from NNE
Gusts 8.9 mph

Today
High -- | Low -- °F
--% Chance of Precip.
Yesterday
High -- | Low -- °F
Precip. -- in
7:09 AM 3:59 PM
Waning Crescent, 17% visible
Pressure 29.60 in
Visibility 5.0 miles
Clouds Mostly Cloudy 1000 ft
Overcast 1600 ft
Windchill 32 °F
Dew Point 34 °F
Humidity 95%
Rainfall -999.00 in
Snow Depth Not available.
UV 0 out of 12
Pollen .10 out of 12
Air Quality Not available.
Flu Activity Not available.
METAR KWVL 180415Z 34008KT 5SM BKN010 OVC016 01/M01 A2960 RMK AO1

More Conditions Fewer Conditions

Pressure 29.60 in
Visibility 5.0 miles
Clouds Mostly Cloudy 1000 ft
Overcast 1600 ft
Windchill 32 °F
Dew Point 34 °F
Humidity 95%
Rainfall -999.00 in
Snow Depth Not available.
UV 0 out of 12
Pollen .10 out of 12
Air Quality Not available.
Flu Activity Not available.
METAR KWVL 180415Z 34008KT 5SM BKN010 OVC016 01/M01 A2960 RMK AO1

More Conditions Fewer Conditions

10-Day Weather Forecast

Almanac

Astronomy

Dec. 17, 2014 Rise Set
Actual Time
Civil Twilight
Nautical Twilight
Astronomical Twilight
Moon
Length of Visible Light
Length of Day
Tomorrow will be .
, % of the Moon is Illuminated

Today's Extremes

State Highs State Lows

Community

WunderPhotos

Upload Photos

1,778,880 photos uploaded!

WunderBlogs® & News

Nearby

Air Quality

  Air Quality AQ Index Pollutant
Not available.

Snow Depth

Station Depth Elevation

Earthquake Activity

City Distance Mag. Time & Date
Minimum magnitude displayed is 2.5.

Coastal Water Temperatures

Place Temperature

Nearby Weather Stations